Time;durP1;ratioP1;P1;durP2;ratioP2;P2;SDS_P1;SDS_P2;PMS_P1;PMS_P2;Temp;Humidity;BMP_temperature;BMP_pressure;BME280_temperature;BME280_humidity;BME280_pressure;Samples;Min_cycle;Max_cycle;Signal;HPM_P1;HPM_P2
2023/12/31 00:00:09;;;;;;;0.90;0.90;;;-1.10;99.90;;;;;;5055161;28;20255;-86
2023/12/31 00:02:37;;;;;;;0.70;0.70;;;-1.10;99.90;;;;;;5051233;28;20288;-86
2023/12/31 00:05:03;;;;;;;0.70;0.70;;;-1.10;99.90;;;;;;5051432;28;20194;-86
2023/12/31 00:07:30;;;;;;;0.77;0.77;;;-1.10;99.90;;;;;;5034498;28;20205;-85
2023/12/31 00:09:56;;;;;;;0.70;0.70;;;-1.10;99.90;;;;;;5056227;28;20227;-85
2023/12/31 00:12:24;;;;;;;0.80;0.80;;;-1.10;99.90;;;;;;5033184;28;20198;-85
2023/12/31 00:14:50;;;;;;;0.77;0.77;;;-1.20;99.90;;;;;;5048251;28;20675;-85
2023/12/31 00:17:16;;;;;;;0.80;0.80;;;-1.20;99.90;;;;;;5054229;28;20201;-85
2023/12/31 00:19:44;;;;;;;0.80;0.80;;;-1.20;99.90;;;;;;5072295;28;20300;-87
2023/12/31 00:22:10;;;;;;;0.73;0.73;;;-1.20;99.90;;;;;;5071900;28;20361;-86
2023/12/31 00:24:42;;;;;;;0.70;0.70;;;-1.20;99.90;;;;;;5073560;28;20203;-93
2023/12/31 00:27:08;;;;;;;0.80;0.80;;;-1.20;99.90;;;;;;5073781;28;20286;-93
2023/12/31 00:29:36;;;;;;;0.70;0.70;;;-1.20;99.90;;;;;;5073135;28;20216;-93
2023/12/31 00:32:06;;;;;;;0.80;0.80;;;-1.10;99.90;;;;;;5073383;28;20197;-91
2023/12/31 00:34:42;;;;;;;0.80;0.80;;;-1.10;99.90;;;;;;5073440;28;20556;-91
2023/12/31 00:37:07;;;;;;;0.75;0.75;;;-1.10;99.90;;;;;;5073680;28;20196;-91
2023/12/31 00:39:33;;;;;;;0.73;0.73;;;-1.10;99.90;;;;;;5073751;28;20258;-91
2023/12/31 00:41:59;;;;;;;0.70;0.70;;;-1.10;99.90;;;;;;5056717;28;20234;-93
2023/12/31 00:44:25;;;;;;;0.80;0.80;;;-1.10;99.90;;;;;;5056683;28;20292;-94
2023/12/31 00:46:51;;;;;;;0.90;0.90;;;-1.20;99.90;;;;;;5074137;28;20216;-93
2023/12/31 00:49:17;;;;;;;0.80;0.80;;;-1.20;99.90;;;;;;5056330;28;20683;-92
2023/12/31 00:51:44;;;;;;;0.80;0.80;;;-1.10;99.90;;;;;;5055780;28;20490;-92
2023/12/31 00:54:12;;;;;;;0.75;0.75;;;-1.20;99.90;;;;;;5075687;28;20242;-92
2023/12/31 00:56:41;;;;;;;0.70;0.70;;;-1.20;99.90;;;;;;5056534;28;20224;-93
2023/12/31 00:59:07;;;;;;;0.70;0.70;;;-1.20;99.90;;;;;;5057329;28;20200;-93
2023/12/31 01:01:43;;;;;;;0.80;0.80;;;-1.10;99.90;;;;;;5056649;28;20204;-91
2023/12/31 01:04:09;;;;;;;0.82;0.82;;;-1.20;99.90;;;;;;5058535;28;20208;-86
2023/12/31 01:06:38;;;;;;;0.75;0.75;;;-1.20;99.90;;;;;;5074357;28;20757;-87
2023/12/31 01:09:06;;;;;;;0.80;0.80;;;-1.20;99.90;;;;;;5074529;28;20273;-86
2023/12/31 01:11:34;;;;;;;0.73;0.73;;;-1.20;99.90;;;;;;5057930;28;20774;-86
2023/12/31 01:14:00;;;;;;;0.70;0.70;;;-1.20;99.90;;;;;;5057550;28;20559;-86
2023/12/31 01:16:25;;;;;;;0.82;0.82;;;-1.20;99.90;;;;;;5075090;28;20189;-87
2023/12/31 01:18:51;;;;;;;0.90;0.90;;;-1.20;99.90;;;;;;5057941;28;20193;-87
2023/12/31 01:21:18;;;;;;;0.70;0.70;;;-1.20;99.90;;;;;;5057505;28;20197;-86
2023/12/31 01:23:44;;;;;;;0.70;0.70;;;-1.20;99.90;;;;;;5058318;28;20196;-86
2023/12/31 01:26:09;;;;;;;0.70;0.70;;;-1.20;99.90;;;;;;5057520;28;20211;-86
2023/12/31 01:28:38;;;;;;;0.70;0.70;;;-1.10;99.90;;;;;;5050056;28;20226;-87
2023/12/31 01:31:04;;;;;;;0.63;0.63;;;-1.20;99.90;;;;;;5037580;28;20202;-87
2023/12/31 01:33:29;;;;;;;0.60;0.60;;;-1.20;99.90;;;;;;5053053;28;20205;-87
2023/12/31 01:35:55;;;;;;;0.80;0.80;;;-1.20;99.90;;;;;;5061005;28;20664;-87
2023/12/31 01:38:24;;;;;;;0.80;0.80;;;-1.20;99.90;;;;;;5057023;28;20197;-87
2023/12/31 01:40:56;;;;;;;0.77;0.77;;;-1.20;99.90;;;;;;5075529;28;20197;-86
2023/12/31 01:43:22;;;;;;;0.80;0.80;;;-1.20;99.90;;;;;;5057255;28;20229;-86
2023/12/31 01:45:48;;;;;;;0.70;0.70;;;-1.20;99.90;;;;;;5057516;28;20227;-86
2023/12/31 01:48:15;;;;;;;0.75;0.75;;;-1.10;99.90;;;;;;5057495;28;20234;-87
2023/12/31 01:50:47;;;;;;;0.77;0.77;;;-1.10;99.90;;;;;;5057391;28;20189;-87
2023/12/31 01:53:14;;;;;;;0.90;0.90;;;-1.10;99.90;;;;;;5056824;28;20274;-87
2023/12/31 01:55:43;;;;;;;0.80;0.80;;;-1.20;99.90;;;;;;5075138;28;20200;-86
2023/12/31 01:58:10;;;;;;;0.70;0.70;;;-1.20;99.90;;;;;;5057113;28;20236;-86
2023/12/31 02:00:40;;;;;;;0.93;0.93;;;-1.20;99.90;;;;;;5057096;28;20265;-86
2023/12/31 02:03:07;;;;;;;0.73;0.73;;;-1.10;99.90;;;;;;5075354;28;20193;-86
2023/12/31 02:12:54;;;;;;;0.80;0.80;;;-1.10;99.90;;;;;;4839469;29;20677;-86
2023/12/31 02:34:23;;;;;;;;;;;;;;;;;;;;;
2023/12/31 03:05:47;;;;;;;0.77;0.77;;;-1.20;99.90;;;;;;4906580;23;20240;-69
2023/12/31 03:08:13;;;;;;;0.80;0.80;;;-1.20;99.90;;;;;;5069124;28;20570;-69
2023/12/31 03:10:38;;;;;;;0.77;0.77;;;-1.20;99.90;;;;;;5069395;28;20203;-69
2023/12/31 03:13:04;;;;;;;0.70;0.70;;;-1.20;99.90;;;;;;5069486;28;20232;-69
2023/12/31 03:15:30;;;;;;;0.60;0.60;;;-1.20;99.90;;;;;;5069503;28;20215;-68
2023/12/31 03:17:55;;;;;;;0.70;0.70;;;-1.20;99.90;;;;;;5069704;28;20223;-69
2023/12/31 03:20:21;;;;;;;0.70;0.70;;;-1.20;99.90;;;;;;5069319;28;20656;-69
2023/12/31 03:22:47;;;;;;;0.82;0.82;;;-1.10;99.90;;;;;;5069705;28;20262;-69
2023/12/31 03:25:13;;;;;;;0.85;0.85;;;-1.20;99.90;;;;;;5067960;28;20672;-69
2023/12/31 03:27:39;;;;;;;0.70;0.70;;;-1.20;99.90;;;;;;5069716;28;20713;-68
2023/12/31 03:30:06;;;;;;;0.70;0.70;;;-1.20;99.90;;;;;;5084488;28;20714;-69
2023/12/31 03:32:32;;;;;;;0.70;0.70;;;-1.20;99.90;;;;;;5069231;28;20528;-69
2023/12/31 03:34:58;;;;;;;0.90;0.90;;;-1.20;99.90;;;;;;5069219;28;20246;-69
2023/12/31 03:37:24;;;;;;;0.70;0.70;;;-1.20;99.90;;;;;;5068921;28;20255;-69
2023/12/31 03:39:51;;;;;;;0.80;0.80;;;-1.20;99.90;;;;;;5067669;28;20231;-69
2023/12/31 03:42:18;;;;;;;0.80;0.80;;;-1.20;99.90;;;;;;5068902;28;20686;-68
2023/12/31 03:44:43;;;;;;;0.80;0.80;;;-1.20;99.90;;;;;;5069022;28;20798;-69
2023/12/31 03:47:09;;;;;;;6.93;2.95;;;-1.20;99.90;;;;;;5068934;28;20320;-69
2023/12/31 03:49:35;;;;;;;0.82;0.82;;;-1.20;99.90;;;;;;5068973;28;20254;-69
2023/12/31 03:52:00;;;;;;;0.70;0.70;;;-1.20;99.90;;;;;;5069466;28;20189;-69
2023/12/31 03:54:26;;;;;;;0.63;0.63;;;-1.20;99.90;;;;;;5068941;28;20743;-70
2023/12/31 03:56:51;;;;;;;0.80;0.80;;;-1.20;99.90;;;;;;5068936;28;20201;-69
2023/12/31 03:59:17;;;;;;;0.80;0.80;;;-1.20;99.90;;;;;;5068497;28;20201;-70
2023/12/31 04:01:44;;;;;;;0.70;0.70;;;-1.20;99.90;;;;;;5068216;28;20720;-70
2023/12/31 04:04:12;;;;;;;1.15;1.08;;;-1.20;99.90;;;;;;5054182;28;20228;-69
2023/12/31 04:06:38;;;;;;;0.90;0.90;;;-1.20;99.90;;;;;;5048619;28;20920;-69
2023/12/31 04:09:03;;;;;;;0.80;0.80;;;-1.20;99.90;;;;;;5049899;28;20236;-69
2023/12/31 04:11:29;;;;;;;0.70;0.70;;;-1.20;99.90;;;;;;5068599;28;20203;-70
2023/12/31 04:13:55;;;;;;;0.80;0.80;;;-1.20;99.90;;;;;;5069126;28;20238;-69
2023/12/31 04:16:20;;;;;;;0.85;0.80;;;-1.20;99.90;;;;;;5068678;28;20199;-70
2023/12/31 04:18:46;;;;;;;0.80;0.80;;;-1.20;99.90;;;;;;5068995;28;20193;-69
2023/12/31 04:21:14;;;;;;;0.77;0.77;;;-1.20;99.90;;;;;;5068648;28;20215;-69
2023/12/31 04:23:39;;;;;;;0.80;0.80;;;-1.30;99.90;;;;;;5068580;28;20199;-69
2023/12/31 04:26:06;;;;;;;0.80;0.80;;;-1.30;99.90;;;;;;5068497;28;20200;-69
2023/12/31 04:28:31;;;;;;;0.70;0.70;;;-1.30;99.90;;;;;;5067268;28;20297;-69
2023/12/31 04:30:57;;;;;;;0.70;0.70;;;-1.30;99.90;;;;;;5068642;28;20245;-69
2023/12/31 04:33:23;;;;;;;0.60;0.60;;;-1.30;99.90;;;;;;5068640;28;20200;-69
2023/12/31 04:35:48;;;;;;;0.80;0.80;;;-1.40;99.90;;;;;;5084169;28;20220;-69
2023/12/31 04:38:14;;;;;;;0.80;0.80;;;-1.40;99.90;;;;;;5067751;28;20572;-69
2023/12/31 04:40:40;;;;;;;0.80;0.80;;;-1.40;99.90;;;;;;5068585;28;20557;-69
2023/12/31 04:43:05;;;;;;;0.80;0.80;;;-1.50;99.90;;;;;;5068661;28;20196;-69
2023/12/31 04:45:31;;;;;;;0.80;0.80;;;-1.50;99.90;;;;;;5068731;28;20704;-69
2023/12/31 04:47:57;;;;;;;1.45;1.35;;;-1.50;99.90;;;;;;5068801;28;20204;-69
2023/12/31 04:50:22;;;;;;;0.80;0.80;;;-1.60;99.90;;;;;;5068233;28;20594;-69
2023/12/31 04:52:48;;;;;;;0.80;0.80;;;-1.50;99.90;;;;;;5068030;28;20209;-69
2023/12/31 04:55:14;;;;;;;0.80;0.80;;;-1.60;99.90;;;;;;5068172;28;20204;-69
2023/12/31 04:57:40;;;;;;;0.82;0.82;;;-1.60;99.90;;;;;;5068150;28;20702;-69
2023/12/31 05:00:06;;;;;;;0.70;0.70;;;-1.60;99.90;;;;;;5068424;28;20644;-69
2023/12/31 05:02:32;;;;;;;0.70;0.70;;;-1.70;99.90;;;;;;5068053;28;20246;-69
2023/12/31 05:04:57;;;;;;;0.65;0.65;;;-1.70;99.90;;;;;;5068246;28;20264;-70
2023/12/31 05:07:23;;;;;;;0.63;0.63;;;-1.70;99.90;;;;;;5067656;28;20696;-70
2023/12/31 05:09:49;;;;;;;0.80;0.80;;;-1.80;99.90;;;;;;5068125;28;20691;-69
2023/12/31 05:12:14;;;;;;;0.80;0.80;;;-1.80;99.90;;;;;;5068180;28;20201;-69
2023/12/31 05:14:40;;;;;;;0.80;0.80;;;-1.90;99.90;;;;;;5068134;28;20202;-69
2023/12/31 05:17:05;;;;;;;0.90;0.90;;;-1.90;99.90;;;;;;5068121;28;20224;-69
2023/12/31 05:19:32;;;;;;;0.80;0.80;;;-2.00;99.90;;;;;;5067779;28;20258;-69
2023/12/31 05:21:58;;;;;;;0.73;0.73;;;-2.00;99.90;;;;;;5067672;28;20564;-70
2023/12/31 05:24:23;;;;;;;0.77;0.77;;;-2.10;99.90;;;;;;5068132;28;20660;-69
2023/12/31 05:26:49;;;;;;;0.80;0.80;;;-2.10;99.90;;;;;;5067782;28;20203;-68
2023/12/31 05:29:15;;;;;;;0.80;0.80;;;-2.10;99.90;;;;;;5068039;28;20216;-69
2023/12/31 05:31:41;;;;;;;0.85;0.85;;;-2.10;99.90;;;;;;5068297;28;20734;-68
2023/12/31 05:34:07;;;;;;;0.80;0.80;;;-2.10;99.90;;;;;;5067723;28;20193;-69
2023/12/31 05:36:32;;;;;;;0.80;0.80;;;-2.10;99.90;;;;;;5083273;28;20211;-68
2023/12/31 05:38:58;;;;;;;0.95;0.95;;;-2.20;99.90;;;;;;5083450;28;20814;-69
2023/12/31 05:41:23;;;;;;;0.80;0.80;;;-2.20;99.90;;;;;;5067281;28;20690;-69
2023/12/31 05:43:49;;;;;;;0.70;0.70;;;-2.20;99.90;;;;;;5067856;28;20200;-68
2023/12/31 05:46:15;;;;;;;0.70;0.70;;;-2.20;99.90;;;;;;5066375;28;20262;-69
2023/12/31 05:48:40;;;;;;;0.80;0.80;;;-2.20;99.90;;;;;;5068774;28;20633;-68
2023/12/31 05:51:06;;;;;;;0.80;0.80;;;-2.20;99.90;;;;;;5071091;28;20739;-69
2023/12/31 05:53:32;;;;;;;0.75;0.75;;;-2.20;99.90;;;;;;5071136;28;20192;-69
2023/12/31 05:55:57;;;;;;;0.70;0.70;;;-2.20;99.90;;;;;;5071353;28;20193;-69
2023/12/31 05:58:23;;;;;;;0.70;0.70;;;-2.30;99.90;;;;;;5070786;28;20197;-69
2023/12/31 06:00:50;;;;;;;0.80;0.80;;;-2.30;99.90;;;;;;5071004;28;20648;-69
2023/12/31 06:03:16;;;;;;;0.75;0.75;;;-2.30;99.90;;;;;;5070794;28;20583;-69
2023/12/31 06:05:41;;;;;;;0.80;0.80;;;-2.30;99.90;;;;;;5070652;28;20297;-69
2023/12/31 06:08:07;;;;;;;0.75;0.75;;;-2.30;99.90;;;;;;5071114;28;20208;-70
2023/12/31 06:10:33;;;;;;;0.82;0.82;;;-2.40;99.90;;;;;;5070489;28;20238;-69
2023/12/31 06:12:58;;;;;;;5.53;1.48;;;-2.40;99.90;;;;;;5070890;28;20197;-69
2023/12/31 06:15:24;;;;;;;0.70;0.70;;;-2.30;99.90;;;;;;5070869;28;20668;-69
2023/12/31 06:17:49;;;;;;;0.80;0.80;;;-2.40;99.90;;;;;;5070713;28;20197;-69
2023/12/31 06:20:15;;;;;;;0.80;0.80;;;-2.40;99.90;;;;;;5071120;28;20197;-68
2023/12/31 06:22:41;;;;;;;0.80;0.80;;;-2.40;99.90;;;;;;5070607;28;20197;-68
2023/12/31 06:25:07;;;;;;;0.80;0.80;;;-2.40;99.90;;;;;;5069256;28;20207;-68
2023/12/31 06:27:33;;;;;;;0.63;0.63;;;-2.30;99.90;;;;;;5070992;28;20232;-68
2023/12/31 06:29:58;;;;;;;0.80;0.80;;;-2.40;99.90;;;;;;5070711;28;20212;-68
2023/12/31 06:32:24;;;;;;;0.73;0.73;;;-2.40;99.90;;;;;;5070200;28;20192;-68
2023/12/31 06:34:50;;;;;;;0.75;0.75;;;-2.40;99.90;;;;;;5071066;28;20200;-68
2023/12/31 06:37:16;;;;;;;0.80;0.80;;;-2.50;99.90;;;;;;5086102;28;20220;-68
2023/12/31 06:39:43;;;;;;;0.95;0.95;;;-2.50;99.90;;;;;;5069990;28;20244;-69
2023/12/31 06:42:08;;;;;;;0.70;0.70;;;-2.40;99.90;;;;;;5070655;28;20197;-68
2023/12/31 06:44:34;;;;;;;0.80;0.80;;;-2.40;99.90;;;;;;5068822;28;20201;-68
2023/12/31 06:47:00;;;;;;;1.00;1.00;;;-2.40;99.90;;;;;;5070487;28;20721;-68
2023/12/31 06:49:25;;;;;;;1.10;1.10;;;-2.50;99.90;;;;;;5068569;28;20216;-68
2023/12/31 06:51:51;;;;;;;1.00;1.00;;;-2.40;99.90;;;;;;5070075;28;20318;-68
2023/12/31 06:54:17;;;;;;;0.80;0.80;;;-2.40;99.90;;;;;;5070026;28;20199;-67
2023/12/31 06:56:43;;;;;;;0.85;0.85;;;-2.40;99.90;;;;;;5070367;28;20662;-70
2023/12/31 06:59:08;;;;;;;2.88;2.35;;;-2.40;99.90;;;;;;5070121;28;20197;-68
2023/12/31 07:01:34;;;;;;;1.08;1.08;;;-2.50;99.90;;;;;;5068874;28;20237;-69
2023/12/31 07:04:00;;;;;;;0.80;0.80;;;-2.40;99.90;;;;;;5069683;28;20181;-68
2023/12/31 07:06:26;;;;;;;0.80;0.80;;;-2.50;99.90;;;;;;5069312;28;20229;-69
2023/12/31 07:08:52;;;;;;;0.90;0.90;;;-2.50;99.90;;;;;;5069654;28;20207;-68
2023/12/31 07:11:17;;;;;;;0.80;0.80;;;-2.50;99.90;;;;;;5069323;28;20220;-68
2023/12/31 07:13:44;;;;;;;1.42;1.33;;;-2.50;99.90;;;;;;5069472;28;20199;-69
2023/12/31 07:16:10;;;;;;;1.30;1.23;;;-2.50;99.90;;;;;;5069694;28;20189;-69
2023/12/31 07:18:38;;;;;;;0.80;0.80;;;-2.50;99.90;;;;;;5068918;28;20203;-69
2023/12/31 07:21:05;;;;;;;0.73;0.73;;;-2.50;99.90;;;;;;5064094;28;20737;-69
2023/12/31 07:23:31;;;;;;;0.70;0.70;;;-2.50;99.90;;;;;;5069472;28;20197;-69
2023/12/31 07:25:56;;;;;;;1.10;1.10;;;-2.50;99.90;;;;;;5069714;28;20191;-70
2023/12/31 07:28:22;;;;;;;0.85;0.85;;;-2.50;99.90;;;;;;5069249;28;20326;-70
2023/12/31 07:30:48;;;;;;;0.80;0.80;;;-2.50;99.90;;;;;;5069523;28;20607;-70
2023/12/31 07:33:13;;;;;;;3.63;2.55;;;-2.50;99.90;;;;;;5069640;28;20192;-70
2023/12/31 07:35:41;;;;;;;0.80;0.80;;;-2.50;99.90;;;;;;5069109;28;20592;-70
2023/12/31 07:38:08;;;;;;;0.80;0.80;;;-2.50;99.90;;;;;;5069466;28;20193;-70
2023/12/31 07:40:34;;;;;;;0.77;0.77;;;-2.50;99.90;;;;;;5079768;28;20633;-70
2023/12/31 07:43:00;;;;;;;0.80;0.80;;;-2.50;99.90;;;;;;5049120;28;20198;-70
2023/12/31 07:45:26;;;;;;;1.17;1.17;;;-2.50;99.90;;;;;;5061982;28;20193;-70
2023/12/31 07:47:53;;;;;;;0.90;0.90;;;-2.60;99.90;;;;;;5068967;28;20250;-71
2023/12/31 07:50:20;;;;;;;0.90;0.90;;;-2.60;99.90;;;;;;5069126;28;20185;-70
2023/12/31 07:52:46;;;;;;;0.90;0.90;;;-2.60;99.90;;;;;;5069108;28;20679;-70
2023/12/31 07:55:12;;;;;;;0.90;0.90;;;-2.60;99.90;;;;;;5069003;28;20188;-71
2023/12/31 07:57:38;;;;;;;0.90;0.90;;;-2.60;99.90;;;;;;5068966;28;20195;-70
2023/12/31 08:00:05;;;;;;;0.90;0.90;;;-2.60;99.90;;;;;;5068755;28;20201;-71
2023/12/31 08:02:30;;;;;;;1.02;1.02;;;-2.60;99.90;;;;;;5068890;28;20192;-71
2023/12/31 08:04:56;;;;;;;0.77;0.77;;;-2.50;99.90;;;;;;5068823;28;20201;-70
2023/12/31 08:07:22;;;;;;;0.88;0.88;;;-2.50;99.90;;;;;;5068639;28;20240;-71
2023/12/31 08:09:47;;;;;;;0.85;0.85;;;-2.60;99.90;;;;;;5068213;28;20208;-71
2023/12/31 08:12:13;;;;;;;0.80;0.80;;;-2.60;99.90;;;;;;5067114;28;20204;-71
2023/12/31 08:14:40;;;;;;;0.80;0.80;;;-2.60;99.90;;;;;;5068453;28;20225;-71
2023/12/31 08:17:07;;;;;;;0.80;0.80;;;-2.60;99.90;;;;;;5068638;28;20201;-71
2023/12/31 08:19:33;;;;;;;0.88;0.88;;;-2.60;99.90;;;;;;5067137;28;20211;-71
2023/12/31 08:21:58;;;;;;;0.82;0.82;;;-2.70;99.90;;;;;;5068377;28;20193;-71
2023/12/31 08:24:24;;;;;;;0.93;0.93;;;-2.60;99.90;;;;;;5083861;28;20200;-71
2023/12/31 08:26:50;;;;;;;0.90;0.90;;;-2.70;99.90;;;;;;5068662;28;20211;-71
2023/12/31 08:29:16;;;;;;;0.90;0.90;;;-2.60;99.90;;;;;;5068416;28;21010;-71
2023/12/31 08:31:47;;;;;;;0.77;0.77;;;-2.70;99.90;;;;;;5068165;28;20280;-69
2023/12/31 08:34:13;;;;;;;0.90;0.90;;;-2.70;99.90;;;;;;5068489;28;20192;-71
2023/12/31 08:36:38;;;;;;;0.80;0.80;;;-2.70;99.90;;;;;;5068200;28;20188;-69
2023/12/31 08:39:04;;;;;;;0.90;0.90;;;-2.70;99.90;;;;;;5068770;28;20422;-69
2023/12/31 08:41:30;;;;;;;0.70;0.70;;;-2.60;99.90;;;;;;5068235;28;20204;-70
2023/12/31 08:43:55;;;;;;;0.90;0.90;;;-2.60;99.90;;;;;;5068553;28;20549;-69
2023/12/31 08:46:21;;;;;;;0.80;0.80;;;-2.60;99.90;;;;;;5068002;28;20220;-70
2023/12/31 08:48:47;;;;;;;0.90;0.90;;;-2.70;99.90;;;;;;5068502;28;20201;-70
2023/12/31 08:51:13;;;;;;;0.80;0.80;;;-2.60;99.90;;;;;;5068395;28;20189;-69
2023/12/31 08:53:39;;;;;;;0.90;0.90;;;-2.60;99.90;;;;;;5068249;28;21172;-70
2023/12/31 08:56:05;;;;;;;0.88;0.88;;;-2.60;99.90;;;;;;5068470;28;20249;-70
2023/12/31 08:58:30;;;;;;;0.73;0.73;;;-2.60;99.90;;;;;;5066602;28;20235;-69
2023/12/31 09:00:57;;;;;;;0.90;0.90;;;-2.60;99.90;;;;;;5068054;28;20193;-70
2023/12/31 09:03:24;;;;;;;0.90;0.90;;;-2.60;99.90;;;;;;5067993;28;20208;-70
2023/12/31 09:05:49;;;;;;;0.90;0.90;;;-2.60;99.90;;;;;;5067774;28;20401;-69
2023/12/31 09:08:15;;;;;;;0.90;0.90;;;-2.60;99.90;;;;;;5067972;28;20296;-70
2023/12/31 09:10:42;;;;;;;0.77;0.77;;;-2.60;99.90;;;;;;5067894;28;20288;-69
2023/12/31 09:13:07;;;;;;;0.80;0.80;;;-2.60;99.90;;;;;;5068096;28;20200;-69
2023/12/31 09:15:34;;;;;;;0.80;0.80;;;-2.60;99.90;;;;;;5067941;28;20567;-68
2023/12/31 09:18:00;;;;;;;0.82;0.82;;;-2.50;99.90;;;;;;5068083;28;20699;-69
2023/12/31 09:20:25;;;;;;;0.80;0.80;;;-2.50;99.90;;;;;;5068234;28;20196;-70
2023/12/31 09:22:53;;;;;;;0.80;0.80;;;-2.50;99.90;;;;;;5068283;28;20201;-69
2023/12/31 09:25:19;;;;;;;0.80;0.80;;;-2.60;99.90;;;;;;5062047;28;20194;-69
2023/12/31 09:27:45;;;;;;;0.80;0.80;;;-2.60;99.90;;;;;;5051678;28;20256;-68
2023/12/31 09:30:11;;;;;;;0.80;0.80;;;-2.50;99.90;;;;;;5051318;28;20245;-68
2023/12/31 09:32:37;;;;;;;0.90;0.90;;;-2.50;99.90;;;;;;5067962;28;20201;-69
2023/12/31 09:35:03;;;;;;;0.80;0.80;;;-2.50;99.90;;;;;;5071696;28;20197;-69
2023/12/31 09:37:29;;;;;;;0.90;0.90;;;-2.50;99.90;;;;;;5071395;28;20201;-69
2023/12/31 09:39:55;;;;;;;0.70;0.70;;;-2.60;99.90;;;;;;5070535;28;20434;-69
2023/12/31 09:42:29;;;;;;;0.90;0.90;;;-2.50;99.90;;;;;;5070150;28;20224;-71
2023/12/31 09:44:55;;;;;;;0.90;0.90;;;-2.50;99.90;;;;;;5071910;28;20200;-69
2023/12/31 09:47:22;;;;;;;0.80;0.80;;;-2.50;99.90;;;;;;5071471;28;20196;-70
2023/12/31 09:49:49;;;;;;;0.70;0.70;;;-2.50;99.90;;;;;;5071351;28;20315;-69
2023/12/31 09:52:15;;;;;;;0.88;0.88;;;-2.60;99.90;;;;;;5071286;28;20272;-70
2023/12/31 09:54:41;;;;;;;0.80;0.80;;;-2.60;99.90;;;;;;5071008;28;20235;-70
2023/12/31 09:57:08;;;;;;;0.90;0.90;;;-2.60;99.90;;;;;;5069904;28;20193;-70
2023/12/31 09:59:35;;;;;;;0.82;0.82;;;-2.60;99.90;;;;;;5069562;28;20296;-69
2023/12/31 10:02:05;;;;;;;0.90;0.90;;;-2.60;99.90;;;;;;5070727;28;20200;-70
2023/12/31 10:04:31;;;;;;;0.90;0.90;;;-2.60;99.90;;;;;;5071048;28;20193;-69
2023/12/31 10:06:57;;;;;;;0.90;0.90;;;-2.50;99.90;;;;;;5070519;28;20640;-71
2023/12/31 10:09:28;;;;;;;0.75;0.75;;;-2.50;99.90;;;;;;5070335;28;20213;-69
2023/12/31 10:11:57;;;;;;;1.10;1.10;;;-2.50;99.90;;;;;;5070989;28;20246;-70
2023/12/31 10:14:25;;;;;;;0.80;0.80;;;-2.50;99.90;;;;;;5070942;28;20582;-70
2023/12/31 10:16:54;;;;;;;0.80;0.80;;;-2.50;99.90;;;;;;5070660;28;20203;-69
2023/12/31 10:19:19;;;;;;;0.80;0.80;;;-2.60;99.90;;;;;;5070854;28;20212;-70
2023/12/31 10:21:45;;;;;;;0.80;0.80;;;-2.60;99.90;;;;;;5070862;28;20188;-70
2023/12/31 10:24:11;;;;;;;0.70;0.70;;;-2.50;99.90;;;;;;5071064;28;20189;-70
2023/12/31 10:26:37;;;;;;;0.80;0.80;;;-2.60;99.90;;;;;;5070912;28;20204;-70
2023/12/31 10:29:06;;;;;;;0.80;0.80;;;-2.70;99.90;;;;;;5070794;28;20205;-70
2023/12/31 10:31:32;;;;;;;0.73;0.73;;;-2.60;99.90;;;;;;5070579;28;20197;-69
2023/12/31 10:34:17;;;;;;;0.82;0.82;;;-2.60;99.90;;;;;;5070783;28;20660;-70
2023/12/31 10:36:47;;;;;;;0.90;0.90;;;-2.50;99.90;;;;;;5071617;28;20189;-70
2023/12/31 10:39:29;;;;;;;0.88;0.88;;;-2.50;99.90;;;;;;5072135;28;20602;-69
2023/12/31 10:41:59;;;;;;;1.02;1.00;;;-2.50;99.90;;;;;;5072052;28;20200;-69
2023/12/31 10:44:26;;;;;;;0.80;0.80;;;-2.50;99.90;;;;;;5071752;28;20200;-70
2023/12/31 10:46:56;;;;;;;0.93;0.93;;;-2.50;99.90;;;;;;5071894;28;20660;-69
2023/12/31 10:49:22;;;;;;;0.80;0.80;;;-2.50;99.90;;;;;;5071522;28;20735;-69
2023/12/31 10:51:52;;;;;;;0.73;0.73;;;-2.60;99.90;;;;;;5072054;28;20181;-69
2023/12/31 10:54:51;;;;;;;0.80;0.80;;;-2.50;99.90;;;;;;5071480;28;20213;-69
2023/12/31 10:57:16;;;;;;;0.68;0.68;;;-2.60;99.90;;;;;;5071635;28;20220;-69
2023/12/31 10:59:43;;;;;;;0.90;0.90;;;-2.60;99.90;;;;;;5071446;28;20220;-68
2023/12/31 11:02:20;;;;;;;0.80;0.80;;;-2.70;99.90;;;;;;5071554;28;20193;-69
2023/12/31 11:04:46;;;;;;;0.82;0.82;;;-2.60;99.90;;;;;;5071519;28;20553;-69
2023/12/31 11:07:20;;;;;;;0.85;0.85;;;-2.60;99.90;;;;;;5071351;28;20239;-69
2023/12/31 11:09:47;;;;;;;1.10;1.10;;;-2.70;99.90;;;;;;5071317;28;20212;-69
2023/12/31 11:12:16;;;;;;;1.00;1.00;;;-2.70;99.90;;;;;;5071488;28;20189;-69
2023/12/31 11:15:02;;;;;;;0.90;0.90;;;-2.80;99.90;;;;;;5071266;28;20272;-69
2023/12/31 11:17:50;;;;;;;0.90;0.90;;;-2.80;99.90;;;;;;5060821;28;20236;-69
2023/12/31 11:20:41;;;;;;;0.80;0.80;;;-2.80;99.90;;;;;;5071346;28;20232;-69
2023/12/31 11:23:41;;;;;;;0.80;0.80;;;-2.70;99.90;;;;;;5071212;28;20193;-69
2023/12/31 11:26:07;;;;;;;0.90;0.90;;;-2.70;99.90;;;;;;5056626;28;20333;-69
2023/12/31 11:28:35;;;;;;;0.90;0.90;;;-2.80;99.90;;;;;;5070837;28;20275;-70
2023/12/31 11:31:04;;;;;;;0.90;0.90;;;-2.80;99.90;;;;;;5071131;28;20242;-69
2023/12/31 11:33:34;;;;;;;0.77;0.77;;;-2.80;99.90;;;;;;5071009;28;20295;-69
2023/12/31 11:36:05;;;;;;;0.73;0.73;;;-2.80;99.90;;;;;;5070958;28;20193;-69
2023/12/31 11:38:59;;;;;;;0.90;0.90;;;-2.80;99.90;;;;;;5055523;28;20660;-70
2023/12/31 11:41:33;;;;;;;0.80;0.80;;;-2.90;99.90;;;;;;5070694;28;20197;-69
2023/12/31 11:44:00;;;;;;;0.80;0.80;;;-2.90;99.90;;;;;;5070937;28;20665;-69
2023/12/31 11:46:35;;;;;;;0.90;0.90;;;-3.00;99.90;;;;;;5070183;28;20201;-69
2023/12/31 11:49:01;;;;;;;0.70;0.70;;;-2.90;99.90;;;;;;5070769;28;20201;-69
2023/12/31 11:51:50;;;;;;;0.90;0.90;;;-3.00;99.90;;;;;;5070469;28;20204;-70
2023/12/31 11:54:37;;;;;;;0.80;0.80;;;-3.00;99.90;;;;;;5085787;28;20197;-70
2023/12/31 11:57:04;;;;;;;0.82;0.82;;;-3.00;99.90;;;;;;5070645;28;20226;-69
2023/12/31 11:59:33;;;;;;;0.75;0.75;;;-3.00;99.90;;;;;;5070532;28;20200;-69
2023/12/31 12:02:00;;;;;;;0.90;0.90;;;-3.00;99.90;;;;;;5070526;28;20196;-69
2023/12/31 12:04:26;;;;;;;0.75;0.75;;;-3.00;99.90;;;;;;5070493;28;20236;-69
2023/12/31 12:06:52;;;;;;;0.80;0.80;;;-3.10;99.90;;;;;;5070381;28;20727;-70
2023/12/31 12:09:26;;;;;;;0.80;0.80;;;-3.10;99.90;;;;;;5067277;28;20234;-70
2023/12/31 12:11:56;;;;;;;0.80;0.80;;;-3.10;99.90;;;;;;5048982;28;20606;-69
2023/12/31 12:14:22;;;;;;;0.77;0.77;;;-3.00;99.90;;;;;;5050276;28;20876;-70
2023/12/31 12:16:47;;;;;;;0.80;0.80;;;-3.00;99.90;;;;;;5050268;28;20201;-69
2023/12/31 12:19:13;;;;;;;0.80;0.80;;;-3.00;99.90;;;;;;5050219;28;20708;-70
2023/12/31 12:21:41;;;;;;;0.70;0.70;;;-3.10;99.90;;;;;;5068403;28;20279;-70
2023/12/31 12:24:08;;;;;;;0.90;0.90;;;-3.10;99.90;;;;;;5069994;28;20216;-69
2023/12/31 12:26:36;;;;;;;0.75;0.75;;;-3.20;99.90;;;;;;5068466;28;20204;-69
2023/12/31 12:29:01;;;;;;;0.73;0.73;;;-3.20;99.90;;;;;;5069797;28;20203;-69
2023/12/31 12:31:36;;;;;;;0.77;0.77;;;-3.20;99.90;;;;;;5068661;28;20193;-69
2023/12/31 12:34:04;;;;;;;0.82;0.82;;;-3.20;99.90;;;;;;5068957;28;20192;-69
2023/12/31 12:36:31;;;;;;;0.70;0.70;;;-3.10;99.90;;;;;;5065378;28;20197;-69
2023/12/31 12:39:02;;;;;;;0.93;0.93;;;-3.10;99.90;;;;;;5068193;28;20267;-70
2023/12/31 12:41:32;;;;;;;1.05;1.05;;;-3.10;99.90;;;;;;5066822;28;20223;-69
2023/12/31 12:44:06;;;;;;;0.70;0.70;;;-3.20;99.90;;;;;;5068716;28;20191;-69
2023/12/31 12:46:33;;;;;;;5.35;2.25;;;-3.20;99.90;;;;;;5067130;28;20200;-69
2023/12/31 12:48:59;;;;;;;0.90;0.90;;;-3.20;99.90;;;;;;5068710;28;20192;-69
2023/12/31 12:51:26;;;;;;;0.80;0.80;;;-3.20;99.90;;;;;;5068336;28;20204;-69
2023/12/31 12:53:55;;;;;;;0.90;0.90;;;-3.20;99.90;;;;;;5068471;28;20936;-69
2023/12/31 12:56:24;;;;;;;0.90;0.90;;;-3.20;99.90;;;;;;5068279;28;20703;-69
2023/12/31 12:58:50;;;;;;;0.80;0.80;;;-3.20;99.90;;;;;;5068311;28;20261;-69
2023/12/31 13:01:16;;;;;;;5.38;2.33;;;-3.20;99.90;;;;;;5072578;28;20196;-69
2023/12/31 13:03:42;;;;;;;0.80;0.80;;;-3.30;99.90;;;;;;5072370;28;20199;-69
2023/12/31 13:06:08;;;;;;;0.80;0.80;;;-3.20;99.90;;;;;;5072175;28;20227;-69
2023/12/31 13:08:34;;;;;;;0.80;0.80;;;-3.20;99.90;;;;;;5071847;28;20197;-70
2023/12/31 13:10:59;;;;;;;0.82;0.82;;;-3.30;99.90;;;;;;5072206;28;20212;-69
2023/12/31 13:13:25;;;;;;;0.90;0.90;;;-3.30;99.90;;;;;;5072005;28;20301;-70
2023/12/31 13:15:51;;;;;;;0.90;0.90;;;-3.20;99.90;;;;;;5068769;28;20198;-69
2023/12/31 13:18:17;;;;;;;0.80;0.80;;;-3.20;99.90;;;;;;5058235;28;20236;-68
2023/12/31 13:20:43;;;;;;;0.80;0.80;;;-3.30;99.90;;;;;;5071946;28;20695;-69
2023/12/31 13:23:09;;;;;;;0.90;0.90;;;-3.30;99.90;;;;;;5071768;28;20197;-69
2023/12/31 13:25:36;;;;;;;1.77;1.67;;;-3.30;99.90;;;;;;5071935;28;20688;-69
2023/12/31 13:28:02;;;;;;;0.80;0.80;;;-3.30;99.90;;;;;;5071940;28;20319;-68
2023/12/31 13:30:28;;;;;;;0.80;0.80;;;-3.30;99.90;;;;;;5071375;28;20201;-69
2023/12/31 13:32:54;;;;;;;0.93;0.93;;;-3.30;99.90;;;;;;5071532;28;20211;-69
2023/12/31 13:35:20;;;;;;;0.90;0.90;;;-3.30;99.90;;;;;;5071664;28;20203;-69
2023/12/31 13:37:46;;;;;;;0.90;0.90;;;-3.30;99.90;;;;;;5071661;28;20564;-69
2023/12/31 13:40:12;;;;;;;0.80;0.80;;;-3.30;99.90;;;;;;5071692;28;20204;-69
2023/12/31 13:42:38;;;;;;;0.70;0.70;;;-3.30;99.90;;;;;;5071537;28;20229;-69